Time;durP1;ratioP1;P1;durP2;ratioP2;P2;SDS_P1;SDS_P2;PMS_P1;PMS_P2;Temp;Humidity;BMP_temperature;BMP_pressure;BME280_temperature;BME280_humidity;BME280_pressure;Samples;Min_cycle;Max_cycle;Signal;HPM_P1;HPM_P2
2022/01/25 00:10:36;;;;;;;47.65;28.73;;;15.30;73.60;;;;;;4162127;28;20480;-63
2022/01/25 00:26:24;;;;;;;51.50;28.58;;;15.40;72.80;;;;;;4176156;28;20495;-64
2022/01/25 00:28:49;;;;;;;49.33;28.33;;;15.40;72.70;;;;;;4175061;28;20052;-64
2022/01/25 00:31:13;;;;;;;46.08;27.70;;;15.40;72.80;;;;;;4176041;28;20045;-63
2022/01/25 00:33:35;;;;;;;51.10;29.83;;;15.40;72.70;;;;;;4176372;28;20061;-63
2022/01/25 00:35:58;;;;;;;49.45;30.00;;;15.30;72.40;;;;;;4176241;28;20068;-63
2022/01/25 00:38:20;;;;;;;48.80;29.13;;;15.30;72.50;;;;;;4159766;28;20045;-63
2022/01/25 00:40:42;;;;;;;44.55;27.15;;;15.30;72.40;;;;;;4159910;28;20057;-63
2022/01/25 00:43:05;;;;;;;45.53;27.98;;;15.30;72.50;;;;;;4176049;28;20041;-63
2022/01/25 00:45:29;;;;;;;42.65;26.80;;;15.30;72.60;;;;;;4176435;28;20406;-63
2022/01/25 00:47:51;;;;;;;44.97;27.45;;;15.30;73.00;;;;;;4175673;28;20550;-62
2022/01/25 00:50:15;;;;;;;49.97;29.08;;;15.30;73.10;;;;;;4175765;28;20049;-64
2022/01/25 00:55:16;;;;;;;44.78;28.55;;;15.40;72.80;;;;;;4178706;28;20045;-63
2022/01/25 00:57:39;;;;;;;46.33;28.75;;;15.40;72.50;;;;;;4175068;28;20481;-63
2022/01/25 01:00:03;;;;;;;46.35;29.13;;;15.50;73.30;;;;;;4179644;28;20114;-63
2022/01/25 01:02:26;;;;;;;47.30;28.80;;;15.50;72.40;;;;;;4179431;28;20495;-63
2022/01/25 01:04:47;;;;;;;47.75;29.13;;;15.50;72.20;;;;;;4178511;28;20073;-63
2022/01/25 01:07:12;;;;;;;45.70;28.08;;;15.50;71.80;;;;;;4179026;28;20091;-63
2022/01/25 01:09:38;;;;;;;49.67;29.02;;;15.60;71.90;;;;;;4178752;28;20053;-63
2022/01/25 01:12:05;;;;;;;47.22;28.95;;;15.50;71.80;;;;;;4179372;28;20053;-63
2022/01/25 01:14:50;;;;;;;46.30;28.60;;;15.50;71.50;;;;;;4176953;28;20515;-64
2022/01/25 01:17:35;;;;;;;44.92;27.88;;;15.50;71.70;;;;;;4179010;28;20053;-64
2022/01/25 01:30:44;;;;;;;46.80;28.55;;;15.40;72.30;;;;;;4178529;28;20045;-63
2022/01/25 01:33:42;;;;;;;47.72;28.40;;;15.40;72.30;;;;;;4178669;28;20450;-63
2022/01/25 01:44:23;;;;;;;47.38;28.77;;;15.50;71.90;;;;;;4178486;28;20048;-63
2022/01/25 01:46:59;;;;;;;46.72;29.67;;;15.50;71.80;;;;;;4162496;28;20076;-62
2022/01/25 01:49:25;;;;;;;43.28;27.85;;;15.50;71.80;;;;;;4162110;28;20065;-63
2022/01/25 01:51:49;;;;;;;49.20;29.00;;;15.60;71.70;;;;;;4162147;28;20084;-64
2022/01/25 01:54:12;;;;;;;44.03;28.67;;;15.60;71.50;;;;;;4161902;28;20049;-63
2022/01/25 01:56:35;;;;;;;47.05;29.10;;;15.60;71.30;;;;;;4178139;28;20049;-63
2022/01/25 01:59:04;;;;;;;47.33;29.55;;;15.60;71.30;;;;;;4178090;28;20052;-63
2022/01/25 02:01:28;;;;;;;44.30;27.45;;;15.60;71.30;;;;;;4178405;28;20060;-63
2022/01/25 02:03:50;;;;;;;43.53;28.33;;;15.60;71.30;;;;;;4178416;28;20036;-63
2022/01/25 02:06:14;;;;;;;47.35;29.63;;;15.50;71.20;;;;;;4163432;28;20045;-63
2022/01/25 02:08:36;;;;;;;45.17;28.27;;;15.50;71.40;;;;;;4161785;28;20152;-63
2022/01/25 02:10:58;;;;;;;44.22;29.10;;;15.50;71.60;;;;;;4161900;28;20053;-63
2022/01/25 02:13:21;;;;;;;46.63;28.92;;;15.50;71.50;;;;;;4161774;28;20132;-63
2022/01/25 02:15:46;;;;;;;44.42;27.90;;;15.50;71.60;;;;;;4175430;28;20045;-63
2022/01/25 02:23:29;;;;;;;47.65;29.33;;;15.40;71.70;;;;;;4177582;28;20052;-63
2022/01/25 02:25:54;;;;;;;45.72;28.35;;;15.40;72.00;;;;;;4162247;28;20065;-63
2022/01/25 02:28:17;;;;;;;47.88;28.17;;;15.40;72.30;;;;;;4161344;28;20045;-63
2022/01/25 02:30:40;;;;;;;50.42;28.95;;;15.50;72.30;;;;;;4165680;28;20122;-62
2022/01/25 02:33:02;;;;;;;45.35;28.27;;;15.60;71.90;;;;;;4177545;28;20488;-63
2022/01/25 02:35:24;;;;;;;47.60;29.05;;;15.70;71.40;;;;;;4176933;28;20164;-63
2022/01/25 02:37:47;;;;;;;42.90;27.05;;;15.70;70.90;;;;;;4177847;28;20103;-63
2022/01/25 02:40:10;;;;;;;46.80;29.08;;;15.80;70.60;;;;;;4178041;28;20409;-63
2022/01/25 02:42:33;;;;;;;45.90;30.10;;;15.70;70.50;;;;;;4176310;28;20489;-62
2022/01/25 02:44:55;;;;;;;48.25;28.85;;;15.80;70.50;;;;;;4175881;28;20049;-63
2022/01/25 02:49:57;;;;;;;48.72;29.90;;;15.80;70.70;;;;;;4177618;28;20053;-62
2022/01/25 02:52:20;;;;;;;45.03;29.77;;;15.80;70.50;;;;;;4177061;28;20091;-63
2022/01/25 02:54:44;;;;;;;49.30;29.30;;;15.80;70.30;;;;;;4177928;28;21225;-63
2022/01/25 02:57:06;;;;;;;48.55;30.92;;;15.90;70.10;;;;;;4177358;28;20048;-63
2022/01/25 02:59:28;;;;;;;47.80;30.40;;;15.90;70.00;;;;;;4177609;28;20470;-63
2022/01/25 03:01:51;;;;;;;48.10;30.10;;;15.90;70.00;;;;;;4175810;28;20139;-62
2022/01/25 03:04:15;;;;;;;52.60;32.40;;;15.90;70.00;;;;;;4164835;28;20053;-63
2022/01/25 03:06:37;;;;;;;49.25;30.08;;;15.90;70.00;;;;;;4161649;28;20547;-63
2022/01/25 03:08:59;;;;;;;47.35;29.55;;;15.90;70.00;;;;;;4177445;28;20064;-63
2022/01/25 03:11:24;;;;;;;44.65;30.17;;;15.90;70.20;;;;;;4177339;28;20500;-63
2022/01/25 03:13:51;;;;;;;47.08;29.30;;;15.80;70.10;;;;;;4162299;28;20061;-63
2022/01/25 03:16:19;;;;;;;49.38;30.98;;;15.80;70.30;;;;;;4175236;28;20079;-63
2022/01/25 03:18:45;;;;;;;47.60;30.00;;;15.80;70.30;;;;;;4177095;28;20122;-63
2022/01/25 03:21:34;;;;;;;49.65;32.17;;;15.90;70.10;;;;;;4177072;28;20036;-62
2022/01/25 03:23:57;;;;;;;48.10;30.88;;;15.90;69.80;;;;;;4160236;28;20045;-63
2022/01/25 03:26:21;;;;;;;47.80;29.92;;;15.90;69.60;;;;;;4160042;28;20061;-63
2022/01/25 03:28:45;;;;;;;49.35;31.40;;;16.00;69.60;;;;;;4160138;28;20080;-63
2022/01/25 03:31:07;;;;;;;47.10;31.75;;;16.00;69.40;;;;;;4164180;28;20048;-63
2022/01/25 03:33:29;;;;;;;47.67;30.92;;;16.00;69.40;;;;;;4175621;28;20088;-62
2022/01/25 03:35:51;;;;;;;46.47;29.65;;;16.00;69.20;;;;;;4176894;28;20051;-63
2022/01/25 03:38:13;;;;;;;52.10;32.35;;;16.00;69.40;;;;;;4176790;28;20103;-63
2022/01/25 03:40:35;;;;;;;49.67;31.42;;;16.00;69.40;;;;;;4176994;28;20492;-63
2022/01/25 03:42:59;;;;;;;48.63;30.52;;;16.00;69.40;;;;;;4176198;28;20044;-63
2022/01/25 03:45:29;;;;;;;49.58;32.58;;;16.00;69.20;;;;;;4176994;28;20059;-63
2022/01/25 03:48:00;;;;;;;45.33;29.25;;;16.00;69.10;;;;;;4176453;28;20053;-63
2022/01/25 03:50:22;;;;;;;46.92;31.27;;;16.00;69.10;;;;;;4176441;28;21415;-63
2022/01/25 03:52:43;;;;;;;52.47;32.88;;;16.00;69.10;;;;;;4175368;28;20522;-63
2022/01/25 03:55:07;;;;;;;50.28;31.23;;;15.90;69.30;;;;;;4176012;28;20701;-63
2022/01/25 03:57:29;;;;;;;49.35;31.55;;;15.90;69.30;;;;;;4175512;28;20080;-63
2022/01/25 03:59:51;;;;;;;47.60;32.28;;;15.90;70.60;;;;;;4176706;28;20064;-63
2022/01/25 04:02:15;;;;;;;47.53;30.05;;;15.80;69.70;;;;;;4160400;28;20067;-63
2022/01/25 04:04:40;;;;;;;47.70;30.92;;;15.90;69.90;;;;;;4160072;28;20111;-63
2022/01/25 04:07:08;;;;;;;51.85;31.20;;;15.90;69.80;;;;;;4160451;28;20519;-63
2022/01/25 04:09:30;;;;;;;48.13;31.38;;;16.00;69.40;;;;;;4168433;28;20072;-63
2022/01/25 04:11:52;;;;;;;50.58;30.83;;;16.10;68.90;;;;;;4176561;28;20499;-63
2022/01/25 04:14:15;;;;;;;49.80;31.50;;;16.20;68.40;;;;;;4159768;28;20045;-63
2022/01/25 04:16:43;;;;;;;47.63;31.48;;;16.30;68.20;;;;;;4159848;28;20058;-63
2022/01/25 04:19:10;;;;;;;48.00;30.73;;;16.30;68.00;;;;;;4159630;28;20551;-63
2022/01/25 04:24:41;;;;;;;48.40;31.25;;;16.30;68.10;;;;;;4160180;28;20126;-63
2022/01/25 04:27:06;;;;;;;49.60;31.17;;;16.30;68.10;;;;;;4159663;28;20154;-63
2022/01/25 04:29:28;;;;;;;48.88;30.42;;;16.30;68.00;;;;;;4159787;28;20057;-63
2022/01/25 04:31:51;;;;;;;48.42;31.38;;;16.30;68.10;;;;;;4170513;28;20052;-63
2022/01/25 04:34:36;;;;;;;45.20;30.58;;;16.20;68.00;;;;;;4175889;28;20049;-63
2022/01/25 04:50:38;;;;;;;45.70;30.38;;;16.20;68.40;;;;;;4175870;28;20548;-63
2022/01/25 04:53:08;;;;;;;49.42;31.30;;;16.10;68.20;;;;;;4175599;28;20081;-63
2022/01/25 04:55:37;;;;;;;44.45;30.20;;;16.10;68.60;;;;;;4175664;28;20059;-64
2022/01/25 04:58:05;;;;;;;48.33;30.33;;;16.10;68.60;;;;;;4176015;28;20065;-63
2022/01/25 05:00:28;;;;;;;49.55;30.65;;;16.10;68.50;;;;;;4176037;28;20469;-63
2022/01/25 05:02:54;;;;;;;50.13;31.20;;;16.10;68.60;;;;;;4169754;28;20060;-63
2022/01/25 05:05:23;;;;;;;45.65;29.60;;;16.10;68.60;;;;;;4171636;28;20470;-63
2022/01/25 05:07:51;;;;;;;44.42;29.15;;;16.10;68.60;;;;;;4175416;28;20045;-63
2022/01/25 05:10:14;;;;;;;46.88;30.42;;;16.20;68.70;;;;;;4176257;28;20052;-63
2022/01/25 05:12:41;;;;;;;47.83;30.40;;;16.30;68.30;;;;;;4175152;28;20735;-63
2022/01/25 05:15:27;;;;;;;50.33;32.05;;;16.40;67.80;;;;;;4175549;28;20067;-63
2022/01/25 05:18:04;;;;;;;44.17;27.58;;;16.40;67.40;;;;;;4175463;28;20040;-63
2022/01/25 05:23:08;;;;;;;50.70;30.23;;;16.40;67.20;;;;;;4159109;28;20051;-63
2022/01/25 05:25:30;;;;;;;50.58;30.05;;;16.40;67.30;;;;;;4159569;28;20050;-63
2022/01/25 05:27:52;;;;;;;44.65;30.13;;;16.30;67.30;;;;;;4159208;28;20063;-62
2022/01/25 05:30:14;;;;;;;43.42;29.00;;;16.30;67.70;;;;;;4159269;28;20100;-62
2022/01/25 05:32:36;;;;;;;48.33;30.23;;;16.20;67.80;;;;;;4159109;28;20049;-63
2022/01/25 05:35:00;;;;;;;48.17;30.85;;;16.20;68.10;;;;;;4159431;28;20060;-62
2022/01/25 05:37:23;;;;;;;48.53;30.88;;;16.20;68.10;;;;;;4161134;28;20119;-63
2022/01/25 05:39:47;;;;;;;44.70;29.48;;;16.20;68.10;;;;;;4179048;28;20052;-62
2022/01/25 05:42:26;;;;;;;47.20;29.92;;;16.20;67.90;;;;;;4178003;28;20526;-63
2022/01/25 05:44:58;;;;;;;45.33;29.45;;;16.20;67.90;;;;;;4178489;28;20045;-63
2022/01/25 05:47:25;;;;;;;45.85;29.58;;;16.20;68.10;;;;;;4178613;28;20077;-63
2022/01/25 05:49:47;;;;;;;45.05;29.27;;;16.20;68.30;;;;;;4178778;28;20653;-63
2022/01/25 05:52:10;;;;;;;47.47;29.60;;;16.20;68.20;;;;;;4163004;28;20485;-64
2022/01/25 05:54:34;;;;;;;48.05;30.95;;;16.30;68.00;;;;;;4161831;28;20050;-64
2022/01/25 05:56:56;;;;;;;45.60;30.17;;;16.30;67.60;;;;;;4162047;28;20124;-64
2022/01/25 05:59:18;;;;;;;49.33;31.52;;;16.40;67.50;;;;;;4161799;28;20052;-63
2022/01/25 06:01:40;;;;;;;44.38;29.08;;;16.40;67.40;;;;;;4173296;28;20052;-63
2022/01/25 06:04:03;;;;;;;47.10;29.50;;;16.40;67.40;;;;;;4177018;28;20068;-63
2022/01/25 06:06:25;;;;;;;48.88;30.50;;;16.30;67.40;;;;;;4178523;28;20063;-63
2022/01/25 06:08:47;;;;;;;47.88;29.95;;;16.30;67.60;;;;;;4178509;28;20048;-63
2022/01/25 06:11:10;;;;;;;46.80;30.17;;;16.20;67.80;;;;;;4174752;28;20910;-63
2022/01/25 06:13:32;;;;;;;48.33;29.42;;;16.20;67.90;;;;;;4178031;28;20150;-63
2022/01/25 06:15:58;;;;;;;48.13;29.33;;;16.20;67.90;;;;;;4177826;28;20060;-63
2022/01/25 06:18:20;;;;;;;45.67;30.00;;;16.20;67.90;;;;;;4178143;28;20072;-63
2022/01/25 06:20:42;;;;;;;44.85;30.05;;;16.20;68.00;;;;;;4177432;28;20073;-63
2022/01/25 06:23:05;;;;;;;47.72;30.17;;;16.20;68.20;;;;;;4180402;28;20505;-63
2022/01/25 06:25:27;;;;;;;51.58;33.75;;;16.10;68.20;;;;;;4178128;28;20059;-64
2022/01/25 06:27:50;;;;;;;51.83;32.88;;;16.20;68.30;;;;;;4178031;28;20056;-63
2022/01/25 06:30:14;;;;;;;48.88;31.77;;;16.20;68.10;;;;;;4177225;28;20111;-63
2022/01/25 06:32:36;;;;;;;46.90;29.77;;;16.20;68.10;;;;;;4178075;28;20091;-63
2022/01/25 06:34:58;;;;;;;46.63;29.63;;;16.20;67.90;;;;;;4177841;28;20106;-63
2022/01/25 06:37:20;;;;;;;47.17;29.92;;;16.10;67.90;;;;;;4177976;28;20041;-63
2022/01/25 06:39:43;;;;;;;45.10;29.02;;;16.10;68.10;;;;;;4177780;28;20048;-63
2022/01/25 06:42:06;;;;;;;47.35;29.98;;;16.10;68.40;;;;;;4162156;28;20091;-63
2022/01/25 06:44:32;;;;;;;46.45;29.88;;;16.10;68.40;;;;;;4177972;28;20060;-63
2022/01/25 06:46:54;;;;;;;49.78;31.05;;;16.20;68.10;;;;;;4177630;28;20611;-63
2022/01/25 06:49:16;;;;;;;46.83;30.83;;;16.30;67.80;;;;;;4176795;28;20060;-62
2022/01/25 06:51:38;;;;;;;49.08;30.40;;;16.30;67.60;;;;;;4164850;28;20053;-63
2022/01/25 06:54:00;;;;;;;43.47;28.77;;;16.30;67.50;;;;;;4177491;28;20454;-62
2022/01/25 06:56:22;;;;;;;48.58;30.55;;;16.30;67.50;;;;;;4177649;28;20057;-63
2022/01/25 06:58:44;;;;;;;47.75;30.33;;;16.20;67.60;;;;;;4177852;28;20052;-63
2022/01/25 07:01:08;;;;;;;47.72;30.90;;;16.20;68.70;;;;;;4167320;28;20041;-63
2022/01/25 07:03:30;;;;;;;45.70;29.15;;;16.20;68.00;;;;;;4161018;28;20060;-63
2022/01/25 07:05:52;;;;;;;46.13;29.17;;;16.20;68.20;;;;;;4162070;28;20049;-62
2022/01/25 07:08:15;;;;;;;49.33;30.88;;;16.20;68.10;;;;;;4177104;28;20049;-63
2022/01/25 07:10:37;;;;;;;46.90;30.33;;;16.20;67.90;;;;;;4172272;28;20156;-63
2022/01/25 07:12:59;;;;;;;49.13;30.42;;;16.20;67.80;;;;;;4160856;28;20504;-63
2022/01/25 07:15:21;;;;;;;49.63;29.63;;;16.20;67.90;;;;;;4174593;28;20048;-62
2022/01/25 07:17:45;;;;;;;49.17;31.08;;;16.20;68.00;;;;;;4176894;28;20053;-68
2022/01/25 07:20:09;;;;;;;48.75;30.38;;;16.20;68.50;;;;;;4175959;28;20380;-68
2022/01/25 07:22:31;;;;;;;49.28;27.90;;;16.20;69.10;;;;;;4160780;28;20037;-67
2022/01/25 07:24:54;;;;;;;49.00;30.80;;;16.20;69.10;;;;;;4160493;28;20043;-67
2022/01/25 07:27:16;;;;;;;49.60;29.58;;;16.10;69.00;;;;;;4159629;28;20494;-67
2022/01/25 07:29:38;;;;;;;48.50;30.75;;;16.10;69.00;;;;;;4159841;28;20182;-67
2022/01/25 07:32:01;;;;;;;48.10;29.85;;;16.10;68.90;;;;;;4176589;28;20053;-67
2022/01/25 07:34:31;;;;;;;49.63;30.77;;;16.00;68.90;;;;;;4176592;28;20397;-68
2022/01/25 07:37:16;;;;;;;47.58;28.95;;;16.00;69.10;;;;;;4175948;28;20059;-67
2022/01/25 07:39:38;;;;;;;49.65;30.58;;;15.90;69.60;;;;;;4160475;28;20136;-67
2022/01/25 07:42:16;;;;;;;43.35;28.30;;;15.90;69.80;;;;;;4167833;28;20045;-67
2022/01/25 07:44:45;;;;;;;52.63;31.23;;;15.90;69.50;;;;;;4159309;28;20053;-67
2022/01/25 07:47:07;;;;;;;48.83;30.63;;;16.00;69.20;;;;;;4173447;28;20047;-67
2022/01/25 07:49:33;;;;;;;46.63;29.75;;;16.10;68.70;;;;;;4173440;28;20059;-67
2022/01/25 07:51:55;;;;;;;44.58;30.40;;;16.10;68.50;;;;;;4173728;28;20082;-67
2022/01/25 07:54:17;;;;;;;49.00;31.83;;;16.10;68.30;;;;;;4173506;28;20048;-68
2022/01/25 07:56:39;;;;;;;49.28;30.38;;;16.10;68.50;;;;;;4173572;28;20060;-59
2022/01/25 07:59:02;;;;;;;53.22;30.65;;;16.10;68.40;;;;;;4173442;28;20052;-63
2022/01/25 08:01:24;;;;;;;52.70;30.50;;;16.10;69.20;;;;;;4173445;28;20063;-65
2022/01/25 08:03:47;;;;;;;48.92;30.15;;;16.10;69.30;;;;;;4173197;28;20409;-65
2022/01/25 08:06:17;;;;;;;47.17;29.98;;;16.20;68.80;;;;;;4172718;28;20045;-65
2022/01/25 08:08:40;;;;;;;49.75;27.90;;;16.20;68.60;;;;;;4173542;28;20044;-65
2022/01/25 08:11:06;;;;;;;47.97;30.27;;;16.20;68.30;;;;;;4173469;28;20048;-65
2022/01/25 08:13:30;;;;;;;50.55;31.10;;;16.20;68.10;;;;;;4173617;28;20041;-65
2022/01/25 08:15:57;;;;;;;51.83;31.13;;;16.20;67.80;;;;;;4173517;28;20052;-65
2022/01/25 08:18:23;;;;;;;51.60;30.83;;;16.20;67.70;;;;;;4172373;28;20052;-65
2022/01/25 08:20:46;;;;;;;50.28;28.45;;;16.20;67.70;;;;;;4172085;28;20053;-65
2022/01/25 08:23:16;;;;;;;48.13;31.38;;;16.20;67.60;;;;;;4173412;28;20210;-65
2022/01/25 08:25:43;;;;;;;50.97;31.00;;;16.20;67.50;;;;;;4173493;28;20134;-66
2022/01/25 08:28:16;;;;;;;49.67;30.35;;;16.10;67.60;;;;;;4173082;28;20078;-65
2022/01/25 08:30:39;;;;;;;52.20;31.20;;;16.20;67.50;;;;;;4172571;28;20057;-65
2022/01/25 08:33:06;;;;;;;47.50;29.55;;;16.20;67.10;;;;;;4173232;28;20118;-65
2022/01/25 08:35:32;;;;;;;47.55;30.48;;;16.20;66.70;;;;;;4170676;28;20068;-66
2022/01/25 08:38:02;;;;;;;50.30;30.48;;;16.20;67.30;;;;;;4171543;28;20068;-65
2022/01/25 08:40:30;;;;;;;49.72;31.75;;;16.30;66.50;;;;;;4173145;28;20065;-65
2022/01/25 08:42:55;;;;;;;57.00;32.60;;;16.30;66.30;;;;;;4172768;28;20052;-65
2022/01/25 08:45:21;;;;;;;55.30;31.55;;;16.20;66.20;;;;;;4173167;28;20053;-65
2022/01/25 08:47:43;;;;;;;55.63;30.92;;;16.20;66.30;;;;;;4173692;28;20059;-65
2022/01/25 08:50:15;;;;;;;;;;;16.10;66.50;;;;;;4174221;28;20045;-65
2022/01/25 08:52:50;;;;;;;50.25;30.00;;;16.10;66.70;;;;;;4172711;28;19956;-65
2022/01/25 08:55:25;;;;;;;54.03;30.33;;;16.10;67.00;;;;;;4172139;28;20132;-65
2022/01/25 08:57:50;;;;;;;46.42;29.73;;;16.00;67.00;;;;;;4173140;28;20473;-67
2022/01/25 09:00:14;;;;;;;53.35;30.98;;;15.90;67.00;;;;;;4173428;28;20048;-63
2022/01/25 09:02:36;;;;;;;54.42;32.92;;;15.90;67.10;;;;;;4173203;28;20139;-65
2022/01/25 09:04:58;;;;;;;50.95;30.73;;;15.90;67.10;;;;;;4171350;28;20076;-65
2022/01/25 09:07:20;;;;;;;52.55;31.65;;;15.80;67.00;;;;;;4173482;28;20067;-65
2022/01/25 09:09:42;;;;;;;52.00;31.45;;;15.80;67.10;;;;;;4173356;28;20044;-65
2022/01/25 09:12:06;;;;;;;52.35;31.98;;;15.80;67.30;;;;;;4174829;28;20044;-65
2022/01/25 09:14:29;;;;;;;52.97;32.38;;;15.80;67.30;;;;;;4176610;28;20053;-65
2022/01/25 09:16:51;;;;;;;54.03;33.47;;;15.80;67.10;;;;;;4175840;28;20189;-65
2022/01/25 09:19:13;;;;;;;51.13;31.35;;;15.90;67.00;;;;;;4174910;28;20056;-65
2022/01/25 09:21:36;;;;;;;55.30;33.13;;;15.90;66.80;;;;;;4174020;28;20057;-65
2022/01/25 09:23:58;;;;;;;64.82;33.55;;;15.90;66.70;;;;;;4175835;28;20064;-65
2022/01/25 09:26:21;;;;;;;59.05;31.65;;;15.90;66.80;;;;;;4175931;28;20040;-65
2022/01/25 09:28:43;;;;;;;55.53;31.10;;;15.90;66.70;;;;;;4177013;28;20088;-65
2022/01/25 09:31:07;;;;;;;55.00;33.25;;;15.80;66.80;;;;;;4175870;28;20124;-65
2022/01/25 09:33:29;;;;;;;50.55;30.67;;;15.80;66.90;;;;;;4176327;28;20521;-65
2022/01/25 09:35:52;;;;;;;49.20;30.40;;;15.70;67.00;;;;;;4176312;28;20049;-65
2022/01/25 09:38:14;;;;;;;58.10;33.75;;;15.70;67.10;;;;;;4176294;28;20397;-65
2022/01/25 09:40:37;;;;;;;50.95;31.45;;;15.70;67.30;;;;;;4174304;28;20111;-65
2022/01/25 09:42:59;;;;;;;50.47;32.25;;;15.60;67.50;;;;;;4176240;28;20049;-65
2022/01/25 09:45:21;;;;;;;52.30;31.60;;;15.60;67.70;;;;;;4176087;28;20056;-65
2022/01/25 09:47:45;;;;;;;54.22;31.75;;;15.60;67.80;;;;;;4176225;28;20409;-64
2022/01/25 09:50:08;;;;;;;56.03;32.25;;;15.60;67.60;;;;;;4175047;28;20404;-66
2022/01/25 09:52:31;;;;;;;49.67;29.38;;;15.60;67.60;;;;;;4175824;28;20049;-65
2022/01/25 09:54:54;;;;;;;56.42;30.33;;;15.60;67.70;;;;;;4175608;28;20056;-66
2022/01/25 09:57:16;;;;;;;54.47;32.28;;;15.50;67.50;;;;;;4174858;28;20485;-65
2022/01/25 09:59:39;;;;;;;56.13;32.30;;;15.50;67.50;;;;;;4174579;28;20484;-65
2022/01/25 10:02:01;;;;;;;58.58;33.38;;;15.50;67.50;;;;;;4175594;28;20048;-65
2022/01/25 10:04:33;;;;;;;57.60;32.92;;;15.60;67.80;;;;;;4175967;28;20053;-65
2022/01/25 10:06:57;;;;;;;51.90;31.23;;;15.60;67.40;;;;;;4175419;28;20044;-65
2022/01/25 10:09:20;;;;;;;55.88;32.10;;;15.70;67.10;;;;;;4175573;28;20134;-66
2022/01/25 10:11:42;;;;;;;50.70;30.50;;;15.70;66.80;;;;;;4175441;28;20064;-65
2022/01/25 10:14:08;;;;;;;54.67;32.65;;;15.80;66.60;;;;;;4174457;28;20049;-65
2022/01/25 10:16:32;;;;;;;54.50;32.95;;;15.80;66.40;;;;;;4175182;28;20079;-65
2022/01/25 10:18:57;;;;;;;56.53;32.53;;;15.80;66.30;;;;;;4175373;28;20378;-65
2022/01/25 10:21:24;;;;;;;52.30;31.75;;;15.80;66.20;;;;;;4175361;28;20047;-65
2022/01/25 10:24:05;;;;;;;56.20;33.67;;;15.80;66.20;;;;;;4172713;28;20485;-65
2022/01/25 10:26:29;;;;;;;56.50;30.73;;;15.70;67.00;;;;;;4175527;28;20084;-65
2022/01/25 10:29:05;;;;;;;58.13;32.67;;;15.70;66.40;;;;;;4175025;28;20820;-67
2022/01/25 10:31:35;;;;;;;55.63;32.38;;;15.60;66.60;;;;;;4174957;28;20056;-68
2022/01/25 10:33:57;;;;;;;48.28;30.42;;;15.60;66.80;;;;;;4175300;28;20041;-65
2022/01/25 10:36:39;;;;;;;52.78;30.67;;;15.50;67.00;;;;;;4174863;28;20132;-62
2022/01/25 10:39:05;;;;;;;52.33;31.80;;;15.50;66.90;;;;;;4173662;28;20410;-62
2022/01/25 10:41:31;;;;;;;54.47;32.47;;;15.50;67.40;;;;;;4175109;28;20056;-62
2022/01/25 10:43:56;;;;;;;58.88;33.25;;;15.40;67.90;;;;;;4174903;28;20077;-62
2022/01/25 10:46:23;;;;;;;52.60;31.45;;;15.40;68.00;;;;;;4175098;28;20117;-63
2022/01/25 10:48:48;;;;;;;58.83;33.72;;;15.30;68.30;;;;;;4174265;28;20048;-63
2022/01/25 10:51:12;;;;;;;53.67;31.77;;;15.30;68.50;;;;;;4174986;28;20051;-64
2022/01/25 10:53:36;;;;;;;53.92;31.20;;;15.20;68.90;;;;;;4175242;28;20048;-63
2022/01/25 10:56:00;;;;;;;51.55;31.33;;;15.20;69.10;;;;;;4175441;28;20122;-63
2022/01/25 10:58:23;;;;;;;54.53;31.05;;;15.20;69.40;;;;;;4174803;28;20053;-62
2022/01/25 11:00:47;;;;;;;53.88;31.40;;;15.20;70.00;;;;;;4174036;28;20072;-64
2022/01/25 11:03:10;;;;;;;58.00;33.70;;;15.20;70.10;;;;;;4175008;28;20049;-63
2022/01/25 11:05:33;;;;;;;58.85;31.42;;;15.30;70.00;;;;;;4175094;28;20501;-62
2022/01/25 11:07:55;;;;;;;51.92;30.92;;;15.30;69.80;;;;;;4174588;28;20052;-63
2022/01/25 11:10:21;;;;;;;54.22;30.60;;;15.40;69.80;;;;;;4174527;28;20083;-63
2022/01/25 11:12:58;;;;;;;55.92;31.27;;;15.40;69.80;;;;;;4175365;28;20104;-62
2022/01/25 11:15:28;;;;;;;56.33;32.05;;;15.40;69.80;;;;;;4174490;28;20465;-63
2022/01/25 11:17:50;;;;;;;53.35;32.60;;;15.40;69.90;;;;;;4173780;28;20126;-63
2022/01/25 11:20:12;;;;;;;52.03;29.10;;;15.40;70.00;;;;;;4174472;28;20053;-63
2022/01/25 11:22:34;;;;;;;53.53;32.13;;;15.40;70.10;;;;;;4174862;28;20127;-63
2022/01/25 11:24:58;;;;;;;57.60;31.95;;;15.40;70.20;;;;;;4174499;28;20048;-63
2022/01/25 11:27:25;;;;;;;53.35;30.30;;;15.40;70.20;;;;;;4172902;28;20071;-63
2022/01/25 11:29:51;;;;;;;49.15;30.08;;;15.40;70.30;;;;;;4174052;28;20053;-63
2022/01/25 11:32:17;;;;;;;53.72;30.95;;;15.40;70.40;;;;;;4173967;28;20049;-63
2022/01/25 11:34:41;;;;;;;55.05;32.25;;;15.40;70.40;;;;;;4172503;28;20148;-63
2022/01/25 11:37:07;;;;;;;55.60;31.35;;;15.40;70.30;;;;;;4173960;28;20041;-63
2022/01/25 11:39:30;;;;;;;49.20;28.85;;;15.40;70.50;;;;;;4173566;28;20048;-62
2022/01/25 11:42:02;;;;;;;51.40;31.40;;;15.50;70.40;;;;;;4174739;28;20049;-63
2022/01/25 11:44:26;;;;;;;54.63;31.60;;;15.50;70.20;;;;;;4173879;28;20533;-63
2022/01/25 11:46:51;;;;;;;55.45;31.08;;;15.50;70.10;;;;;;4174289;28;20052;-63
2022/01/25 11:49:16;;;;;;;53.72;31.38;;;15.50;70.00;;;;;;4174202;28;20531;-62
2022/01/25 11:51:38;;;;;;;48.63;29.83;;;15.50;70.10;;;;;;4173676;28;20126;-63
2022/01/25 11:54:04;;;;;;;51.65;30.75;;;15.50;70.20;;;;;;4174668;28;20382;-63
2022/01/25 11:56:27;;;;;;;56.58;29.52;;;15.50;70.30;;;;;;4173435;28;20041;-63
2022/01/25 11:58:56;;;;;;;52.42;29.50;;;15.60;70.50;;;;;;4174272;28;20044;-62
2022/01/25 12:01:22;;;;;;;53.65;30.70;;;15.60;70.40;;;;;;4174097;28;20045;-63
2022/01/25 12:03:47;;;;;;;49.63;29.30;;;15.60;70.30;;;;;;4173892;28;20074;-63
2022/01/25 12:06:14;;;;;;;51.85;28.80;;;15.60;70.30;;;;;;4174167;28;20405;-63
2022/01/25 12:08:51;;;;;;;53.42;30.63;;;15.60;70.50;;;;;;4173206;28;20052;-63
2022/01/25 12:11:31;;;;;;;51.38;31.15;;;15.50;70.80;;;;;;4172529;28;20458;-63
2022/01/25 12:14:17;;;;;;;51.40;30.60;;;15.50;70.90;;;;;;4173512;28;20132;-63
2022/01/25 12:16:44;;;;;;;51.58;30.30;;;15.50;71.00;;;;;;4140973;28;20057;-63
2022/01/25 12:19:06;;;;;;;48.85;29.27;;;15.50;71.00;;;;;;4140492;28;20053;-64
2022/01/25 12:21:57;;;;;;;54.85;31.85;;;15.60;71.20;;;;;;4140805;28;20490;-64
2022/01/25 12:24:24;;;;;;;;;;;15.60;70.90;;;;;;4140689;28;20141;-63
2022/01/25 12:26:58;;;;;;;51.80;30.70;;;15.60;71.10;;;;;;4141682;28;19979;-63
2022/01/25 12:29:34;;;;;;;55.17;30.30;;;15.60;71.20;;;;;;4141341;28;20057;-63
2022/01/25 12:32:17;;;;;;;50.40;30.92;;;15.70;70.90;;;;;;4140361;28;20050;-62
2022/01/25 12:35:01;;;;;;;50.65;29.33;;;15.80;70.70;;;;;;4153604;28;20132;-63
2022/01/25 12:38:10;;;;;;;60.22;31.52;;;15.80;70.50;;;;;;4141271;28;20061;-63
2022/01/25 12:40:42;;;;;;;52.20;28.63;;;15.80;70.30;;;;;;4140114;28;20041;-63
2022/01/25 12:43:05;;;;;;;;;;;15.90;70.20;;;;;;4140760;28;20061;-63
2022/01/25 12:45:30;;;;;;;52.95;29.45;;;16.00;70.20;;;;;;4140291;28;19925;-64
2022/01/25 12:47:56;;;;;;;55.08;30.65;;;15.90;70.00;;;;;;4141155;28;20057;-63
2022/01/25 12:50:18;;;;;;;53.47;31.60;;;15.90;70.00;;;;;;4140334;28;20042;-63
2022/01/25 12:52:40;;;;;;;54.08;30.98;;;15.90;70.00;;;;;;4141225;28;20508;-63
2022/01/25 12:55:03;;;;;;;53.35;30.88;;;15.90;69.90;;;;;;4140532;28;20054;-63
2022/01/25 12:57:25;;;;;;;58.58;33.00;;;15.90;70.10;;;;;;4139878;28;20167;-63
2022/01/25 12:59:50;;;;;;;53.63;30.40;;;15.80;70.10;;;;;;4140403;28;20045;-64
2022/01/25 13:02:19;;;;;;;53.92;31.17;;;15.80;70.30;;;;;;4140448;28;20917;-62
2022/01/25 13:04:43;;;;;;;51.05;28.27;;;15.80;70.50;;;;;;4140428;28;20049;-63
2022/01/25 13:07:05;;;;;;;51.25;29.00;;;15.70;70.80;;;;;;4139110;28;20505;-63
2022/01/25 13:09:30;;;;;;;51.38;29.17;;;15.70;70.90;;;;;;4140592;28;20552;-63
2022/01/25 13:12:11;;;;;;;55.95;30.70;;;15.60;71.10;;;;;;4140191;28;20074;-63
2022/01/25 13:14:48;;;;;;;52.30;29.70;;;15.60;71.30;;;;;;4141248;28;20393;-63
2022/01/25 13:17:14;;;;;;;55.33;32.08;;;15.50;71.60;;;;;;4172552;28;20045;-65
2022/01/25 13:19:43;;;;;;;55.78;31.15;;;15.50;72.00;;;;;;4172696;28;20045;-63
2022/01/25 13:22:11;;;;;;;53.63;31.10;;;15.50;72.00;;;;;;4172813;28;20080;-63
2022/01/25 13:24:41;;;;;;;50.33;30.27;;;15.60;71.80;;;;;;4173281;28;20530;-63
2022/01/25 13:27:08;;;;;;;53.63;30.33;;;15.60;71.60;;;;;;4173107;28;20053;-64
2022/01/25 13:32:18;;;;;;;46.28;28.83;;;15.70;71.00;;;;;;4173063;28;20080;-63
2022/01/25 13:34:41;;;;;;;48.17;27.98;;;15.70;71.10;;;;;;4172672;28;20056;-63